createdAt,value
2018-12-27T00:01:53.466Z,5.60
2018-12-27T00:04:23.288Z,5.60
2018-12-27T00:06:53.502Z,5.60
2018-12-27T00:09:22.826Z,5.60
2018-12-27T00:11:53.309Z,5.60
2018-12-27T00:14:26.170Z,5.60
2018-12-27T00:17:00.237Z,5.50
2018-12-27T00:19:34.635Z,5.50
2018-12-27T00:22:04.876Z,5.60
2018-12-27T00:24:36.332Z,5.50
2018-12-27T00:27:05.936Z,5.50
2018-12-27T00:29:37.181Z,5.60
2018-12-27T00:32:07.226Z,5.60
2018-12-27T00:34:37.021Z,5.60
2018-12-27T00:37:07.762Z,5.60
2018-12-27T00:39:37.955Z,5.60
2018-12-27T00:42:07.019Z,5.50
2018-12-27T00:44:36.892Z,5.50
2018-12-27T00:47:07.522Z,5.40
2018-12-27T00:49:37.275Z,5.50
2018-12-27T00:52:07.046Z,5.40
2018-12-27T00:54:37.405Z,5.40
2018-12-27T00:57:06.989Z,5.40
2018-12-27T00:59:36.542Z,5.40
2018-12-27T01:02:07.504Z,5.40
2018-12-27T01:04:37.024Z,5.40
2018-12-27T01:07:06.866Z,5.50
2018-12-27T01:09:36.430Z,5.60
2018-12-27T01:12:05.969Z,5.60
2018-12-27T01:14:35.338Z,5.50
2018-12-27T01:17:05.313Z,5.50
2018-12-27T01:19:34.862Z,5.50
2018-12-27T01:22:04.875Z,5.50
2018-12-27T01:24:35.091Z,5.50
2018-12-27T01:27:04.788Z,5.50
2018-12-27T01:29:34.359Z,5.50
2018-12-27T01:32:04.320Z,5.50
2018-12-27T01:34:34.002Z,5.60
2018-12-27T01:37:03.387Z,5.60
2018-12-27T01:39:32.885Z,5.60
2018-12-27T01:42:02.407Z,5.60
2018-12-27T01:44:32.149Z,5.60
2018-12-27T01:47:01.748Z,5.60
2018-12-27T01:49:31.015Z,5.60
2018-12-27T01:52:01.246Z,5.70
2018-12-27T01:54:31.515Z,5.70
2018-12-27T01:57:03.157Z,5.60
2018-12-27T01:59:38.058Z,5.70
2018-12-27T02:02:10.852Z,5.80
2018-12-27T02:04:46.825Z,5.90
2018-12-27T02:07:20.590Z,6.20
2018-12-27T02:09:53.671Z,6.40
2018-12-27T02:12:24.607Z,6.50
2018-12-27T02:14:56.928Z,6.50
2018-12-27T02:17:27.353Z,6.20
2018-12-27T02:20:02.412Z,6.00
2018-12-27T02:22:41.187Z,5.90
2018-12-27T02:25:11.139Z,5.80
2018-12-27T02:27:40.886Z,5.80
2018-12-27T02:30:10.685Z,5.80
2018-12-27T02:32:40.236Z,5.70
2018-12-27T02:35:10.425Z,5.70
2018-12-27T02:37:41.422Z,5.70
2018-12-27T02:40:14.326Z,5.70
2018-12-27T02:42:50.626Z,5.70
2018-12-27T02:45:22.885Z,5.70
2018-12-27T02:47:56.713Z,5.70
2018-12-27T02:50:32.631Z,5.60
2018-12-27T02:53:02.964Z,5.50
2018-12-27T02:55:37.781Z,5.40
2018-12-27T02:58:11.173Z,5.40
2018-12-27T03:00:45.713Z,5.40
2018-12-27T03:03:16.628Z,5.40
2018-12-27T03:05:46.087Z,5.40
2018-12-27T03:08:17.286Z,5.40
2018-12-27T03:10:47.948Z,5.40
2018-12-27T03:13:18.661Z,5.30
2018-12-27T03:15:47.948Z,5.40
2018-12-27T03:18:18.739Z,5.40
2018-12-27T03:20:48.572Z,5.50
2018-12-27T03:23:19.122Z,5.50
2018-12-27T03:25:49.282Z,5.50
2018-12-27T03:28:18.767Z,5.50
2018-12-27T03:30:49.733Z,5.50
2018-12-27T03:33:19.951Z,5.50
2018-12-27T03:35:49.364Z,5.50
2018-12-27T03:38:20.256Z,5.50
2018-12-27T03:40:49.683Z,5.50
2018-12-27T03:43:19.094Z,5.50
2018-12-27T03:45:48.876Z,5.50
2018-12-27T03:48:18.339Z,5.50
2018-12-27T03:50:48.837Z,5.50
2018-12-27T03:53:18.376Z,5.50
2018-12-27T03:55:47.999Z,5.50
2018-12-27T03:58:17.368Z,5.50
2018-12-27T04:00:49.132Z,5.50
2018-12-27T04:03:18.936Z,5.50
2018-12-27T04:05:49.052Z,5.60
2018-12-27T04:08:19.165Z,5.50
2018-12-27T04:10:49.731Z,5.50
2018-12-27T04:13:19.658Z,5.60
2018-12-27T04:15:49.490Z,5.60
2018-12-27T04:18:21.487Z,5.60
2018-12-27T04:20:51.210Z,5.70
2018-12-27T04:23:22.109Z,5.60
2018-12-27T04:25:52.325Z,5.60
2018-12-27T04:28:22.960Z,5.50
2018-12-27T04:30:52.502Z,5.40
2018-12-27T04:33:22.658Z,5.40
2018-12-27T04:35:52.756Z,5.50
2018-12-27T04:38:22.321Z,5.50
2018-12-27T04:40:52.337Z,5.60
2018-12-27T04:43:22.375Z,5.40
2018-12-27T04:45:52.363Z,5.50
2018-12-27T04:48:21.965Z,5.60
2018-12-27T04:50:52.846Z,5.60
2018-12-27T04:53:22.526Z,5.70
2018-12-27T04:55:52.535Z,5.70
2018-12-27T04:58:24.687Z,5.70
2018-12-27T05:00:55.224Z,5.70
2018-12-27T05:03:25.582Z,5.70
2018-12-27T05:05:56.352Z,5.70
2018-12-27T05:08:26.195Z,5.70
2018-12-27T05:10:55.937Z,5.70
2018-12-27T05:13:25.551Z,5.70
2018-12-27T05:15:55.083Z,5.70
2018-12-27T05:18:24.687Z,5.80
2018-12-27T05:20:54.796Z,5.80
2018-12-27T05:23:25.927Z,5.80
2018-12-27T05:25:56.898Z,5.80
2018-12-27T05:28:26.674Z,5.80
2018-12-27T05:30:56.069Z,5.80
2018-12-27T05:33:25.869Z,5.80
2018-12-27T05:35:56.132Z,5.70
2018-12-27T05:38:25.767Z,5.70
2018-12-27T05:40:54.874Z,5.80
2018-12-27T05:43:24.466Z,5.80
2018-12-27T05:45:54.106Z,5.70
2018-12-27T05:48:23.803Z,5.70
2018-12-27T05:50:54.539Z,5.70
2018-12-27T05:53:24.126Z,5.60
2018-12-27T05:55:55.411Z,5.80
2018-12-27T05:58:25.749Z,5.80
2018-12-27T06:00:55.528Z,5.80
2018-12-27T06:03:25.194Z,5.80
2018-12-27T06:05:55.617Z,5.80
2018-12-27T06:08:25.789Z,5.70
2018-12-27T06:10:56.744Z,5.70
2018-12-27T06:13:28.229Z,5.70
2018-12-27T06:15:57.789Z,5.70
2018-12-27T06:18:27.460Z,5.80
2018-12-27T06:20:57.297Z,5.80
2018-12-27T06:23:27.091Z,5.80
2018-12-27T06:25:56.877Z,5.90
2018-12-27T06:28:26.284Z,5.90
2018-12-27T06:30:56.768Z,5.80
2018-12-27T06:33:26.426Z,5.80
2018-12-27T06:35:56.851Z,5.90
2018-12-27T06:38:27.505Z,5.90
2018-12-27T06:40:58.444Z,5.80
2018-12-27T06:43:28.935Z,5.60
2018-12-27T06:45:58.520Z,5.60
2018-12-27T06:48:28.413Z,5.70
2018-12-27T06:50:58.058Z,5.70
2018-12-27T06:53:27.727Z,5.70
2018-12-27T06:55:57.492Z,5.80
2018-12-27T06:58:27.671Z,5.80
2018-12-27T07:00:57.601Z,5.80
2018-12-27T07:03:28.221Z,5.80
2018-12-27T07:05:57.882Z,5.70
2018-12-27T07:08:27.795Z,5.60
2018-12-27T07:10:57.568Z,5.60
2018-12-27T07:13:27.606Z,5.50
2018-12-27T07:15:58.389Z,5.60
2018-12-27T07:18:28.932Z,5.70
2018-12-27T07:20:58.982Z,5.70
2018-12-27T07:23:28.818Z,5.80
2018-12-27T07:25:58.731Z,5.80
2018-12-27T07:28:28.522Z,5.60
2018-12-27T07:30:58.320Z,5.70
2018-12-27T07:33:28.755Z,5.70
2018-12-27T07:35:58.374Z,5.70
2018-12-27T07:38:28.074Z,5.70
2018-12-27T07:40:57.678Z,5.80
2018-12-27T07:43:27.537Z,5.80
2018-12-27T07:45:57.472Z,5.80
2018-12-27T07:48:27.074Z,5.90
2018-12-27T07:50:56.664Z,5.80
2018-12-27T07:53:26.221Z,5.90
2018-12-27T07:55:55.655Z,5.80
2018-12-27T07:58:25.980Z,5.80
2018-12-27T08:00:55.733Z,5.90
2018-12-27T08:03:25.353Z,5.80
2018-12-27T08:05:54.876Z,5.80
2018-12-27T08:08:24.821Z,5.70
2018-12-27T08:10:54.520Z,5.70
2018-12-27T08:13:23.831Z,5.70
2018-12-27T08:15:56.413Z,5.70
2018-12-27T08:18:26.254Z,5.70
2018-12-27T08:20:56.829Z,5.80
2018-12-27T08:23:26.332Z,5.80
2018-12-27T08:25:56.639Z,5.80
2018-12-27T08:28:26.326Z,5.70
2018-12-27T08:30:57.675Z,5.70
2018-12-27T08:33:27.905Z,5.60
2018-12-27T08:35:57.226Z,5.60
2018-12-27T08:38:26.973Z,5.60
2018-12-27T08:40:57.192Z,5.60
2018-12-27T08:43:26.534Z,5.60
2018-12-27T08:45:55.903Z,5.50
2018-12-27T08:48:27.275Z,5.50
2018-12-27T08:50:57.566Z,5.40
2018-12-27T08:53:27.178Z,5.40
2018-12-27T08:55:57.704Z,5.30
2018-12-27T08:58:27.415Z,5.20
2018-12-27T09:00:58.591Z,5.20
2018-12-27T09:03:28.079Z,5.10
2018-12-27T09:05:57.647Z,5.00
2018-12-27T09:08:28.154Z,4.90
2018-12-27T09:10:58.278Z,4.70
2018-12-27T09:13:27.628Z,4.60
2018-12-27T09:15:57.405Z,4.60
2018-12-27T09:18:27.201Z,4.50
2018-12-27T09:20:56.895Z,4.50
2018-12-27T09:23:26.779Z,4.50
2018-12-27T09:25:56.944Z,4.50
2018-12-27T09:28:26.726Z,4.50
2018-12-27T09:30:57.385Z,4.50
2018-12-27T09:33:26.895Z,4.50
2018-12-27T09:35:56.368Z,4.50
2018-12-27T09:38:25.887Z,4.40
2018-12-27T09:40:55.618Z,4.50
2018-12-27T09:43:25.376Z,4.50
2018-12-27T09:45:54.806Z,4.50
2018-12-27T09:48:24.349Z,4.60
2018-12-27T09:50:54.932Z,4.60
2018-12-27T09:53:25.921Z,4.60
2018-12-27T09:55:55.977Z,4.60
2018-12-27T09:58:25.430Z,4.60
2018-12-27T10:00:55.910Z,4.60
2018-12-27T10:03:25.635Z,4.60
2018-12-27T10:05:55.062Z,4.60
2018-12-27T10:08:24.940Z,4.60
2018-12-27T10:10:54.522Z,4.50
2018-12-27T10:13:24.604Z,4.50
2018-12-27T10:15:54.139Z,4.60
2018-12-27T10:18:24.347Z,4.60
2018-12-27T10:20:54.328Z,4.50
2018-12-27T10:23:25.064Z,4.50
2018-12-27T10:25:54.710Z,4.60
2018-12-27T10:28:25.605Z,4.60
2018-12-27T10:30:59.715Z,4.60
2018-12-27T10:33:25.800Z,4.60
2018-12-27T10:35:56.034Z,4.70
2018-12-27T10:38:26.081Z,4.60
2018-12-27T10:40:56.122Z,4.70
2018-12-27T10:43:26.295Z,4.70
2018-12-27T10:45:56.066Z,4.70
2018-12-27T10:48:25.754Z,4.60
2018-12-27T10:50:55.270Z,4.60
2018-12-27T10:53:26.265Z,4.60
2018-12-27T10:55:56.384Z,4.70
2018-12-27T10:58:27.203Z,4.70
2018-12-27T11:00:58.050Z,4.60
2018-12-27T11:03:30.631Z,4.60
2018-12-27T11:05:57.660Z,4.60
2018-12-27T11:08:27.712Z,4.70
2018-12-27T11:10:57.209Z,4.70
2018-12-27T11:13:26.956Z,4.80
2018-12-27T11:15:56.291Z,4.80
2018-12-27T11:18:25.626Z,4.80
2018-12-27T11:20:55.565Z,4.80
2018-12-27T11:23:26.006Z,4.80
2018-12-27T11:25:55.585Z,4.80
2018-12-27T11:28:25.667Z,4.90
2018-12-27T11:30:55.398Z,4.90
2018-12-27T11:33:26.092Z,4.80
2018-12-27T11:35:56.315Z,4.90
2018-12-27T11:38:27.329Z,4.80
2018-12-27T11:40:56.994Z,4.90
2018-12-27T11:43:26.998Z,4.80
2018-12-27T11:45:56.857Z,4.90
2018-12-27T11:48:26.317Z,4.90
2018-12-27T11:50:56.673Z,4.90
2018-12-27T11:53:26.495Z,4.90
2018-12-27T11:55:56.542Z,4.90
2018-12-27T11:58:25.812Z,4.90
2018-12-27T12:00:55.378Z,5.00
2018-12-27T12:03:24.981Z,5.00
2018-12-27T12:05:54.989Z,4.90
2018-12-27T12:08:24.571Z,5.00
2018-12-27T12:10:54.263Z,5.00
2018-12-27T12:13:24.078Z,5.00
2018-12-27T12:15:53.944Z,5.00
2018-12-27T12:18:23.792Z,5.00
2018-12-27T12:20:53.262Z,5.00
2018-12-27T12:23:22.726Z,4.90
2018-12-27T12:25:52.306Z,4.90
2018-12-27T12:28:21.721Z,4.90
2018-12-27T12:30:51.417Z,5.00
2018-12-27T12:33:21.293Z,5.00
2018-12-27T12:35:51.722Z,5.00
2018-12-27T12:38:21.908Z,5.00
2018-12-27T12:40:51.394Z,5.00
2018-12-27T12:43:22.204Z,5.00
2018-12-27T12:45:52.013Z,5.10
2018-12-27T12:48:22.378Z,5.10
2018-12-27T12:50:51.907Z,5.10
2018-12-27T12:53:21.781Z,5.10
2018-12-27T12:55:51.478Z,5.10
2018-12-27T12:58:20.854Z,5.10
2018-12-27T13:00:51.158Z,5.10
2018-12-27T13:03:20.843Z,4.90
2018-12-27T13:05:50.575Z,4.90
2018-12-27T13:08:20.233Z,4.90
2018-12-27T13:10:49.815Z,4.90
2018-12-27T13:13:20.406Z,5.00
2018-12-27T13:15:49.846Z,4.90
2018-12-27T13:18:19.252Z,5.00
2018-12-27T13:20:49.597Z,5.00
2018-12-27T13:23:19.950Z,5.00
2018-12-27T13:25:50.283Z,4.90
2018-12-27T13:28:20.704Z,5.00
2018-12-27T13:30:50.280Z,4.90
2018-12-27T13:33:20.390Z,4.90
2018-12-27T13:35:49.833Z,4.90
2018-12-27T13:38:19.198Z,5.00
2018-12-27T13:40:48.994Z,5.00
2018-12-27T13:43:18.664Z,4.90
2018-12-27T13:45:48.256Z,4.80
2018-12-27T13:48:17.894Z,4.80
2018-12-27T13:50:47.941Z,4.80
2018-12-27T13:53:17.284Z,4.70
2018-12-27T13:55:46.633Z,4.70
2018-12-27T13:58:17.027Z,4.70
2018-12-27T14:00:46.257Z,4.70
2018-12-27T14:03:15.655Z,4.70
2018-12-27T14:05:44.584Z,4.60
2018-12-27T14:08:14.238Z,4.60
2018-12-27T14:10:43.579Z,4.50
2018-12-27T14:13:15.927Z,4.50
2018-12-27T14:15:46.832Z,4.50
2018-12-27T14:18:16.743Z,4.40
2018-12-27T14:20:47.127Z,4.30
2018-12-27T14:23:17.729Z,4.40
2018-12-27T14:25:47.059Z,4.30
2018-12-27T14:28:17.365Z,4.40
2018-12-27T14:30:48.738Z,4.30
2018-12-27T14:33:18.252Z,4.40
2018-12-27T14:35:48.304Z,4.40
2018-12-27T14:38:18.037Z,4.40
2018-12-27T14:40:47.907Z,4.40
2018-12-27T14:43:17.469Z,4.40
2018-12-27T14:45:46.977Z,4.30
2018-12-27T14:48:16.467Z,4.30
2018-12-27T14:50:45.914Z,4.20
2018-12-27T14:53:15.625Z,4.20
2018-12-27T14:55:45.278Z,4.20
2018-12-27T14:58:14.681Z,4.20
2018-12-27T15:00:44.319Z,4.20
2018-12-27T15:03:14.362Z,4.20
2018-12-27T15:05:43.857Z,4.20
2018-12-27T15:08:13.827Z,4.20
2018-12-27T15:10:43.387Z,4.20
2018-12-27T15:13:12.905Z,4.10
2018-12-27T15:15:43.724Z,4.10
2018-12-27T15:18:14.099Z,4.20
2018-12-27T15:20:43.700Z,4.10
2018-12-27T15:23:15.761Z,4.00
2018-12-27T15:25:45.391Z,3.90
2018-12-27T15:28:15.003Z,4.00
2018-12-27T15:30:44.600Z,4.00
2018-12-27T15:33:14.129Z,4.10
2018-12-27T15:35:43.920Z,4.10
2018-12-27T15:38:13.614Z,4.20
2018-12-27T15:40:44.985Z,4.20
2018-12-27T15:43:14.569Z,4.20
2018-12-27T15:45:44.296Z,4.20
2018-12-27T15:48:13.678Z,4.20
2018-12-27T15:50:43.867Z,4.20
2018-12-27T15:53:13.605Z,4.20
2018-12-27T15:55:43.118Z,4.20
2018-12-27T15:58:12.606Z,4.20
2018-12-27T16:00:42.087Z,4.20
2018-12-27T16:03:12.725Z,4.30
2018-12-27T16:05:42.224Z,4.20
2018-12-27T16:08:11.563Z,4.20
2018-12-27T16:10:40.957Z,4.20
2018-12-27T16:13:11.785Z,4.20
2018-12-27T16:15:41.364Z,4.20
2018-12-27T16:18:10.999Z,4.20
2018-12-27T16:20:41.324Z,4.30
2018-12-27T16:23:11.366Z,4.30
2018-12-27T16:25:41.394Z,4.40
2018-12-27T16:28:11.140Z,4.40
2018-12-27T16:30:41.052Z,4.30
2018-12-27T16:33:11.207Z,4.30
2018-12-27T16:35:42.537Z,4.30
2018-12-27T16:38:12.245Z,4.40
2018-12-27T16:40:42.159Z,4.40
2018-12-27T16:43:11.817Z,4.40
2018-12-27T16:45:41.609Z,4.40
2018-12-27T16:48:10.973Z,4.40
2018-12-27T16:50:40.230Z,4.40
2018-12-27T16:53:09.645Z,4.50
2018-12-27T16:55:39.319Z,4.50
2018-12-27T16:58:08.796Z,4.60
2018-12-27T17:00:38.470Z,4.60
2018-12-27T17:03:08.190Z,4.60
2018-12-27T17:05:37.913Z,4.60
2018-12-27T17:08:07.227Z,4.70
2018-12-27T17:10:37.147Z,4.60
2018-12-27T17:13:07.753Z,4.60
2018-12-27T17:15:37.411Z,4.60
2018-12-27T17:18:06.996Z,4.60
2018-12-27T17:20:36.531Z,4.70
2018-12-27T17:23:06.614Z,4.70
2018-12-27T17:25:36.074Z,4.80
2018-12-27T17:28:06.210Z,4.80
2018-12-27T17:30:35.706Z,4.90
2018-12-27T17:33:05.396Z,5.00
2018-12-27T17:35:34.751Z,5.00
2018-12-27T17:38:04.853Z,4.90
2018-12-27T17:40:35.056Z,5.00
2018-12-27T17:43:05.480Z,5.10
2018-12-27T17:45:35.166Z,5.10
2018-12-27T17:48:06.445Z,5.20
2018-12-27T17:50:36.154Z,5.30
2018-12-27T17:53:05.790Z,5.30
2018-12-27T17:55:35.481Z,5.30
2018-12-27T17:58:04.967Z,5.40
2018-12-27T18:00:34.388Z,5.50
2018-12-27T18:03:04.143Z,5.50
2018-12-27T18:05:33.626Z,5.40
2018-12-27T18:08:03.820Z,5.20
2018-12-27T18:10:33.473Z,5.10
2018-12-27T18:13:02.901Z,5.20
2018-12-27T18:15:33.062Z,5.30
2018-12-27T18:18:03.618Z,5.50
2018-12-27T18:20:33.157Z,5.40
2018-12-27T18:23:03.442Z,5.60
2018-12-27T18:25:34.485Z,5.60
2018-12-27T18:28:05.637Z,5.60
2018-12-27T18:30:36.348Z,5.70
2018-12-27T18:33:06.402Z,5.80
2018-12-27T18:35:36.131Z,5.80
2018-12-27T18:38:05.997Z,5.80
2018-12-27T18:40:35.778Z,5.90
2018-12-27T18:43:05.639Z,5.90
2018-12-27T18:45:35.360Z,6.00
2018-12-27T18:48:05.203Z,6.10
2018-12-27T18:50:34.764Z,6.30
2018-12-27T18:53:05.074Z,6.30
2018-12-27T18:55:35.615Z,6.60
2018-12-27T18:58:05.293Z,6.60
2018-12-27T19:00:34.735Z,6.80
2018-12-27T19:03:05.678Z,6.90
2018-12-27T19:05:35.926Z,6.90
2018-12-27T19:08:05.389Z,7.00
2018-12-27T19:10:34.982Z,7.00
2018-12-27T19:13:05.392Z,7.10
2018-12-27T19:15:36.412Z,7.00
2018-12-27T19:18:07.748Z,6.90
2018-12-27T19:20:37.639Z,6.80
2018-12-27T19:23:07.404Z,6.70
2018-12-27T19:25:36.987Z,6.70
2018-12-27T19:28:07.367Z,6.60
2018-12-27T19:30:38.283Z,6.60
2018-12-27T19:33:11.037Z,6.50
2018-12-27T19:35:41.393Z,6.50
2018-12-27T19:38:10.937Z,6.50
2018-12-27T19:40:41.528Z,6.50
2018-12-27T19:43:11.601Z,6.40
2018-12-27T19:45:40.984Z,6.50
2018-12-27T19:48:10.480Z,6.40
2018-12-27T19:50:39.848Z,6.30
2018-12-27T19:53:09.414Z,6.30
2018-12-27T19:55:39.034Z,6.30
2018-12-27T19:58:10.588Z,6.30
2018-12-27T20:00:40.948Z,6.50
2018-12-27T20:05:44.765Z,6.50
2018-12-27T20:08:15.792Z,6.60
2018-12-27T20:10:46.386Z,6.70
2018-12-27T20:13:15.833Z,6.70
2018-12-27T20:15:46.066Z,6.80
2018-12-27T20:18:15.607Z,6.80
2018-12-27T20:20:45.061Z,6.90
2018-12-27T20:23:15.431Z,7.00
2018-12-27T20:25:46.595Z,7.10
2018-12-27T20:28:15.931Z,7.30
2018-12-27T20:30:45.564Z,7.40
2018-12-27T20:33:15.195Z,7.50
2018-12-27T20:35:44.675Z,7.40
2018-12-27T20:38:14.631Z,7.40
2018-12-27T20:40:44.538Z,7.40
2018-12-27T20:43:15.156Z,7.40
2018-12-27T20:45:45.346Z,7.40
2018-12-27T20:48:14.679Z,7.50
2018-12-27T20:50:44.922Z,7.50
2018-12-27T20:53:14.479Z,7.70
2018-12-27T20:55:44.002Z,7.70
2018-12-27T20:58:15.156Z,7.70
2018-12-27T21:00:45.945Z,7.80
2018-12-27T21:03:15.597Z,7.90
2018-12-27T21:05:45.283Z,7.90
2018-12-27T21:08:15.138Z,8.00
2018-12-27T21:10:45.149Z,7.90
2018-12-27T21:13:15.872Z,7.90
2018-12-27T21:15:45.887Z,7.80
2018-12-27T21:18:16.271Z,7.80
2018-12-27T21:20:46.366Z,7.70
2018-12-27T21:23:16.371Z,7.70
2018-12-27T21:25:45.803Z,7.60
2018-12-27T21:28:16.437Z,7.70
2018-12-27T21:30:45.763Z,7.60
2018-12-27T21:33:17.727Z,7.50
2018-12-27T21:35:51.768Z,7.50
2018-12-27T21:38:21.725Z,7.40
2018-12-27T21:40:53.192Z,7.40
2018-12-27T21:43:23.153Z,7.40
2018-12-27T21:45:52.777Z,7.40
2018-12-27T21:48:22.673Z,7.40
2018-12-27T21:50:52.978Z,7.40
2018-12-27T21:53:24.373Z,7.40
2018-12-27T21:55:54.893Z,7.40
2018-12-27T21:58:26.131Z,7.30
2018-12-27T22:00:55.773Z,7.30
2018-12-27T22:03:26.076Z,7.30
2018-12-27T22:05:56.088Z,7.30
2018-12-27T22:08:28.695Z,7.30
2018-12-27T22:10:56.321Z,7.40
2018-12-27T22:13:25.835Z,7.30
2018-12-27T22:15:57.008Z,7.30
2018-12-27T22:18:27.250Z,7.30
2018-12-27T22:20:56.798Z,7.30
2018-12-27T22:23:26.467Z,7.20
2018-12-27T22:25:56.139Z,7.20
2018-12-27T22:28:26.038Z,7.20
2018-12-27T22:30:56.670Z,7.10
2018-12-27T22:33:26.179Z,7.10
2018-12-27T22:35:56.852Z,7.00
2018-12-27T22:38:26.909Z,7.00
2018-12-27T22:40:56.622Z,7.00
2018-12-27T22:43:26.229Z,6.90
2018-12-27T22:45:57.295Z,6.90
2018-12-27T22:48:27.742Z,6.90
2018-12-27T22:50:57.730Z,6.90
2018-12-27T22:53:27.186Z,6.90
2018-12-27T22:55:56.943Z,6.90
2018-12-27T22:58:28.820Z,6.90
2018-12-27T23:00:58.698Z,6.90
2018-12-27T23:03:28.031Z,6.90
2018-12-27T23:05:57.806Z,6.90
2018-12-27T23:08:27.831Z,6.80
2018-12-27T23:10:57.097Z,6.80
2018-12-27T23:13:26.547Z,6.80
2018-12-27T23:15:55.982Z,6.80
2018-12-27T23:18:26.212Z,6.80
2018-12-27T23:20:55.678Z,6.70
2018-12-27T23:23:25.188Z,6.80
2018-12-27T23:25:55.666Z,6.70
2018-12-27T23:28:27.004Z,6.70
2018-12-27T23:30:57.364Z,6.70
2018-12-27T23:33:26.872Z,6.60
2018-12-27T23:35:56.440Z,6.60
2018-12-27T23:38:26.424Z,6.50
2018-12-27T23:40:56.998Z,6.50
2018-12-27T23:43:27.083Z,6.40
2018-12-27T23:45:56.731Z,6.30
2018-12-27T23:48:26.672Z,6.30
2018-12-27T23:50:56.233Z,6.30
2018-12-27T23:53:26.453Z,6.20
2018-12-27T23:55:57.150Z,6.20
2018-12-27T23:58:26.947Z,6.10
